createdAt,value
2022-10-31T00:02:18.992Z,8.70
2022-10-31T00:04:46.997Z,6.67
2022-10-31T00:07:14.912Z,6.33
2022-10-31T00:09:42.880Z,5.73
2022-10-31T00:12:10.752Z,6.27
2022-10-31T00:14:38.612Z,5.63
2022-10-31T00:17:07.900Z,5.07
2022-10-31T00:19:35.775Z,5.80
2022-10-31T00:22:03.675Z,9.03
2022-10-31T00:24:31.542Z,6.67
2022-10-31T00:26:59.437Z,6.00
2022-10-31T00:29:27.313Z,9.73
2022-10-31T00:31:55.493Z,8.27
2022-10-31T00:34:24.787Z,5.50
2022-10-31T00:36:52.705Z,6.63
2022-10-31T00:39:21.000Z,7.47
2022-10-31T00:41:48.872Z,9.17
2022-10-31T00:44:16.857Z,10.40
2022-10-31T00:46:44.736Z,9.90
2022-10-31T00:49:13.347Z,9.80
2022-10-31T00:51:42.796Z,10.00
2022-10-31T00:54:10.745Z,8.47
2022-10-31T00:56:38.645Z,8.27
2022-10-31T00:59:06.567Z,8.33
2022-10-31T01:01:34.661Z,8.40
2022-10-31T01:04:02.655Z,9.27
2022-10-31T01:06:30.530Z,6.53
2022-10-31T01:09:00.266Z,9.43
2022-10-31T01:11:28.179Z,7.70
2022-10-31T01:13:56.172Z,7.70
2022-10-31T01:16:25.870Z,9.87
2022-10-31T01:18:53.886Z,10.50
2022-10-31T01:21:23.545Z,9.47
2022-10-31T01:23:51.780Z,11.70
2022-10-31T01:26:22.751Z,8.13
2022-10-31T01:28:51.795Z,11.03
2022-10-31T01:31:21.073Z,10.97
2022-10-31T01:33:49.011Z,8.20
2022-10-31T01:36:19.871Z,10.03
2022-10-31T01:38:48.106Z,10.23
2022-10-31T01:41:17.706Z,8.23
2022-10-31T01:43:50.725Z,6.87
2022-10-31T01:46:21.500Z,11.63
2022-10-31T01:48:50.093Z,9.67
2022-10-31T01:51:18.883Z,9.87
2022-10-31T01:53:47.117Z,8.03
2022-10-31T01:56:16.264Z,10.23
2022-10-31T01:58:44.657Z,8.93
2022-10-31T02:01:15.503Z,10.77
2022-10-31T02:03:43.631Z,10.57
2022-10-31T02:06:20.369Z,9.20
2022-10-31T02:08:48.399Z,10.20
2022-10-31T02:11:16.848Z,9.40
2022-10-31T02:13:44.805Z,7.07
2022-10-31T02:16:14.272Z,7.63
2022-10-31T02:18:42.206Z,7.60
2022-10-31T02:21:16.221Z,9.10
2022-10-31T02:24:02.721Z,7.53
2022-10-31T02:26:56.633Z,9.00
2022-10-31T02:29:57.770Z,10.17
2022-10-31T02:32:30.288Z,9.07
2022-10-31T02:35:01.081Z,9.97
2022-10-31T02:37:37.216Z,11.77
2022-10-31T02:40:10.287Z,8.43
2022-10-31T02:42:44.567Z,9.40
2022-10-31T02:45:16.335Z,8.57
2022-10-31T02:47:46.640Z,7.37
2022-10-31T02:50:16.627Z,11.20
2022-10-31T02:52:44.545Z,8.30
2022-10-31T02:55:20.478Z,10.83
2022-10-31T02:57:48.393Z,7.57
2022-10-31T03:00:16.665Z,9.37
2022-10-31T03:03:03.322Z,11.07
2022-10-31T03:05:48.447Z,11.07
2022-10-31T03:08:23.788Z,9.90
2022-10-31T03:10:56.731Z,7.83
2022-10-31T03:13:31.212Z,9.87
2022-10-31T03:16:07.126Z,11.57
2022-10-31T03:18:40.127Z,7.17
2022-10-31T03:21:10.686Z,7.57
2022-10-31T03:23:39.998Z,6.97
2022-10-31T03:26:10.074Z,10.83
2022-10-31T03:28:40.711Z,11.00
2022-10-31T03:31:10.212Z,9.10
2022-10-31T03:33:40.992Z,7.20
2022-10-31T03:36:10.484Z,7.43
2022-10-31T03:38:38.485Z,7.27
2022-10-31T03:41:08.311Z,9.67
2022-10-31T03:43:45.848Z,9.73
2022-10-31T03:46:13.836Z,10.43
2022-10-31T03:48:43.268Z,9.10
2022-10-31T03:51:17.229Z,10.17
2022-10-31T03:53:49.463Z,8.83
2022-10-31T03:56:21.989Z,8.43
2022-10-31T03:58:52.872Z,7.40
2022-10-31T04:01:22.705Z,9.53
2022-10-31T04:03:52.393Z,11.73
2022-10-31T04:06:21.405Z,11.53
2022-10-31T04:08:53.647Z,11.33
2022-10-31T04:11:24.181Z,12.30
2022-10-31T04:13:52.459Z,11.47
2022-10-31T04:16:20.952Z,11.87
2022-10-31T04:18:48.929Z,8.77
2022-10-31T04:21:18.324Z,9.63
2022-10-31T04:23:46.193Z,10.10
2022-10-31T04:26:14.781Z,11.10
2022-10-31T04:28:42.806Z,7.70
2022-10-31T04:31:12.068Z,11.00
2022-10-31T04:33:40.192Z,8.73
2022-10-31T04:36:08.408Z,9.30
2022-10-31T04:38:37.693Z,9.97
2022-10-31T04:41:05.668Z,8.70
2022-10-31T04:43:33.668Z,8.47
2022-10-31T04:46:01.638Z,8.07
2022-10-31T04:48:29.547Z,8.90
2022-10-31T04:51:01.349Z,7.40
2022-10-31T04:53:29.336Z,6.90
2022-10-31T04:56:00.269Z,10.73
2022-10-31T04:58:28.369Z,7.13
2022-10-31T05:00:57.055Z,9.07
2022-10-31T05:03:25.040Z,6.63
2022-10-31T05:05:52.991Z,10.60
2022-10-31T05:08:20.883Z,7.27
2022-10-31T05:10:48.801Z,10.00
2022-10-31T05:13:18.275Z,8.00
2022-10-31T05:15:46.269Z,8.23
2022-10-31T05:18:14.145Z,7.20
2022-10-31T05:20:42.068Z,6.27
2022-10-31T05:23:09.948Z,7.43
2022-10-31T05:25:37.844Z,6.67
2022-10-31T05:28:06.060Z,8.80
2022-10-31T05:30:35.839Z,9.47
2022-10-31T05:33:03.944Z,9.40
2022-10-31T05:35:33.163Z,9.80
2022-10-31T05:38:01.331Z,10.10
2022-10-31T05:40:29.914Z,6.13
2022-10-31T05:42:59.516Z,7.63
2022-10-31T05:45:28.099Z,10.07
2022-10-31T05:47:58.505Z,8.23
2022-10-31T05:50:28.055Z,7.77
2022-10-31T05:53:00.104Z,7.40
2022-10-31T05:55:28.169Z,10.20
2022-10-31T05:57:56.984Z,9.70
2022-10-31T06:00:26.498Z,5.80
2022-10-31T06:03:01.311Z,9.10
2022-10-31T06:05:29.320Z,6.40
2022-10-31T06:07:57.466Z,8.23
2022-10-31T06:10:26.274Z,6.10
2022-10-31T06:12:54.179Z,9.70
2022-10-31T06:15:24.375Z,6.30
2022-10-31T06:18:02.441Z,6.50
2022-10-31T06:20:30.656Z,8.07
2022-10-31T06:22:58.857Z,8.80
2022-10-31T06:25:27.073Z,6.00
2022-10-31T06:27:55.016Z,7.57
2022-10-31T06:30:23.163Z,7.83
2022-10-31T06:32:51.571Z,10.27
2022-10-31T06:35:20.864Z,9.53
2022-10-31T06:37:53.525Z,10.87
2022-10-31T06:40:21.772Z,8.10
2022-10-31T06:42:49.667Z,7.07
2022-10-31T06:45:17.577Z,6.57
2022-10-31T06:48:15.581Z,9.63
2022-10-31T06:50:42.233Z,10.17
2022-10-31T06:55:43.750Z,9.23
2022-10-31T06:58:12.633Z,6.10
2022-10-31T07:00:40.575Z,6.80
2022-10-31T07:03:11.719Z,6.57
2022-10-31T07:05:39.624Z,9.03
2022-10-31T07:08:11.031Z,10.20
2022-10-31T07:10:40.738Z,9.57
2022-10-31T07:13:12.295Z,8.17
2022-10-31T07:15:41.174Z,9.67
2022-10-31T07:18:10.570Z,9.20
2022-10-31T07:20:38.611Z,10.73
2022-10-31T07:23:08.184Z,6.43
2022-10-31T07:25:36.053Z,6.60
2022-10-31T07:28:04.346Z,10.03
2022-10-31T07:30:32.369Z,7.20
2022-10-31T07:33:00.468Z,9.40
2022-10-31T07:35:30.118Z,7.70
2022-10-31T07:37:58.829Z,7.43
2022-10-31T07:40:28.307Z,10.23
2022-10-31T07:42:56.207Z,8.33
2022-10-31T07:45:24.148Z,8.37
2022-10-31T07:47:53.414Z,9.67
2022-10-31T07:50:22.674Z,7.27
2022-10-31T07:52:59.574Z,5.37
2022-10-31T07:55:29.225Z,9.07
2022-10-31T07:58:01.070Z,9.03
2022-10-31T08:00:29.344Z,8.33
2022-10-31T08:03:01.690Z,8.90
2022-10-31T08:05:29.999Z,10.03
2022-10-31T08:07:59.077Z,10.03
2022-10-31T08:10:29.648Z,9.70
2022-10-31T08:12:59.048Z,9.20
2022-10-31T08:15:27.558Z,6.87
2022-10-31T08:17:55.687Z,7.07
2022-10-31T08:20:23.881Z,8.00
2022-10-31T08:22:56.357Z,7.30
2022-10-31T08:25:24.491Z,8.23
2022-10-31T08:27:54.865Z,9.10
2022-10-31T08:30:24.128Z,6.00
2022-10-31T08:33:00.332Z,7.27
2022-10-31T08:35:28.260Z,8.33
2022-10-31T08:37:56.665Z,7.73
2022-10-31T08:40:24.924Z,5.40
2022-10-31T08:43:00.144Z,6.40
2022-10-31T08:45:28.064Z,7.17
2022-10-31T08:47:59.457Z,5.70
2022-10-31T08:50:27.928Z,5.70
2022-10-31T08:53:10.266Z,7.93
2022-10-31T08:55:39.205Z,6.53
2022-10-31T08:58:11.729Z,6.60
2022-10-31T09:00:39.807Z,8.67
2022-10-31T09:03:10.833Z,7.57
2022-10-31T09:05:38.844Z,6.53
2022-10-31T09:08:11.642Z,6.07
2022-10-31T09:10:43.220Z,4.80
2022-10-31T09:13:14.321Z,7.27
2022-10-31T09:15:43.442Z,7.60
2022-10-31T09:18:11.821Z,7.87
2022-10-31T09:20:40.775Z,6.13
2022-10-31T09:23:10.696Z,5.73
2022-10-31T09:25:39.084Z,7.17
2022-10-31T09:28:08.716Z,6.50
2022-10-31T09:30:38.275Z,8.33
2022-10-31T09:33:08.597Z,8.53
2022-10-31T09:35:36.537Z,7.73
2022-10-31T09:38:05.867Z,6.80
2022-10-31T09:40:37.039Z,5.93
2022-10-31T09:43:13.755Z,6.80
2022-10-31T09:45:49.407Z,6.60
2022-10-31T09:48:34.504Z,5.30
2022-10-31T09:51:06.867Z,5.00
2022-10-31T09:53:39.762Z,6.87
2022-10-31T09:56:10.136Z,7.60
2022-10-31T09:58:43.300Z,4.00
2022-10-31T10:01:27.910Z,7.17
2022-10-31T10:03:59.035Z,5.33
2022-10-31T10:06:28.444Z,6.30
2022-10-31T10:08:57.443Z,6.77
2022-10-31T10:11:35.464Z,6.53
2022-10-31T10:14:12.829Z,4.53
2022-10-31T10:16:56.327Z,8.83
2022-10-31T10:19:35.155Z,8.37
2022-10-31T10:22:07.632Z,7.47
2022-10-31T10:24:47.993Z,7.57
2022-10-31T10:27:23.351Z,5.70
2022-10-31T10:29:55.399Z,7.13
2022-10-31T10:32:26.804Z,5.10
2022-10-31T10:34:59.315Z,4.03
2022-10-31T10:37:32.649Z,4.20
2022-10-31T10:40:09.375Z,3.80
2022-10-31T10:42:54.663Z,4.80
2022-10-31T10:45:40.494Z,6.97
2022-10-31T10:48:17.602Z,4.30
2022-10-31T10:50:50.411Z,4.03
2022-10-31T10:53:36.165Z,7.57
2022-10-31T10:56:13.080Z,7.30
2022-10-31T10:58:42.717Z,3.90
2022-10-31T11:03:48.656Z,6.73
2022-10-31T11:06:23.198Z,7.00
2022-10-31T11:08:51.544Z,5.60
2022-10-31T11:11:28.726Z,3.83
2022-10-31T11:14:00.502Z,5.47
2022-10-31T11:16:39.557Z,6.37
2022-10-31T11:19:18.462Z,4.27
2022-10-31T11:21:52.640Z,7.90
2022-10-31T11:24:23.756Z,6.97
2022-10-31T11:26:52.901Z,5.00
2022-10-31T11:29:25.776Z,7.00
2022-10-31T11:31:55.792Z,4.40
2022-10-31T11:34:32.693Z,8.87
2022-10-31T11:37:04.863Z,8.27
2022-10-31T11:39:32.809Z,8.10
2022-10-31T11:42:07.827Z,5.63
2022-10-31T11:44:36.878Z,5.43
2022-10-31T11:47:06.639Z,8.60
2022-10-31T11:49:38.599Z,9.97
2022-10-31T11:52:23.161Z,7.20
2022-10-31T11:54:53.259Z,7.53
2022-10-31T11:57:30.579Z,7.67
2022-10-31T11:59:59.952Z,7.20
2022-10-31T12:02:28.554Z,5.03
2022-10-31T12:05:03.380Z,5.30
2022-10-31T12:07:31.311Z,4.73
2022-10-31T12:10:00.489Z,6.90
2022-10-31T12:12:44.508Z,7.00
2022-10-31T12:15:34.582Z,7.33
2022-10-31T12:18:39.188Z,7.37
2022-10-31T12:21:22.279Z,6.27
2022-10-31T12:24:07.892Z,7.37
2022-10-31T12:26:41.419Z,6.63
2022-10-31T12:29:20.481Z,5.30
2022-10-31T12:32:00.267Z,5.67
2022-10-31T12:34:58.125Z,8.53
2022-10-31T12:37:37.747Z,5.20
2022-10-31T12:40:29.661Z,6.77
2022-10-31T12:43:07.647Z,8.60
2022-10-31T12:45:54.794Z,7.80
2022-10-31T12:48:36.851Z,8.23
2022-10-31T12:51:09.368Z,8.00
2022-10-31T12:53:46.648Z,8.70
2022-10-31T12:56:27.221Z,7.43
2022-10-31T12:58:58.998Z,7.83
2022-10-31T13:01:29.615Z,5.80
2022-10-31T13:04:00.806Z,5.37
2022-10-31T13:06:32.149Z,5.53
2022-10-31T13:09:03.210Z,5.50
2022-10-31T13:11:34.728Z,5.40
2022-10-31T13:14:20.766Z,7.90
2022-10-31T13:16:49.510Z,5.10
2022-10-31T13:19:20.081Z,9.30
2022-10-31T13:21:56.465Z,5.30
2022-10-31T13:24:31.492Z,4.43
2022-10-31T13:27:00.661Z,8.23
2022-10-31T13:29:32.687Z,5.60
2022-10-31T13:32:02.155Z,7.80
2022-10-31T13:34:33.516Z,7.50
2022-10-31T13:37:06.613Z,6.60
2022-10-31T13:39:57.337Z,6.33
2022-10-31T13:42:30.657Z,7.00
2022-10-31T13:45:10.834Z,6.00
2022-10-31T13:47:38.744Z,7.07
2022-10-31T13:50:09.048Z,6.83
2022-10-31T13:52:38.303Z,7.13
2022-10-31T13:55:39.521Z,7.03
2022-10-31T13:58:19.061Z,6.37
2022-10-31T14:00:47.006Z,7.17
2022-10-31T14:03:36.267Z,5.10
2022-10-31T14:06:10.597Z,4.73
2022-10-31T14:08:41.780Z,4.70
2022-10-31T14:11:12.261Z,4.30
2022-10-31T14:13:47.179Z,4.63
2022-10-31T14:16:21.020Z,4.20
2022-10-31T14:18:52.844Z,4.40
2022-10-31T14:21:30.302Z,4.90
2022-10-31T14:23:58.829Z,4.97
2022-10-31T14:26:36.487Z,5.57
2022-10-31T14:29:21.715Z,5.40
2022-10-31T14:31:55.396Z,7.27
2022-10-31T14:34:27.933Z,6.47
2022-10-31T14:37:12.830Z,6.33
2022-10-31T14:39:47.544Z,7.90
2022-10-31T14:42:30.041Z,5.33
2022-10-31T14:45:15.133Z,4.77
2022-10-31T14:47:56.287Z,4.53
2022-10-31T14:50:35.531Z,4.47
2022-10-31T14:53:05.743Z,4.10
2022-10-31T14:55:34.362Z,4.80
2022-10-31T14:58:06.194Z,4.37
2022-10-31T15:00:35.474Z,4.67
2022-10-31T15:03:11.270Z,4.67
2022-10-31T15:05:45.112Z,3.93
2022-10-31T15:08:16.835Z,4.77
2022-10-31T15:10:48.060Z,4.10
2022-10-31T15:13:20.809Z,4.30
2022-10-31T15:15:52.337Z,3.97
2022-10-31T15:18:24.431Z,4.10
2022-10-31T15:20:53.104Z,3.63
2022-10-31T15:23:24.131Z,4.23
2022-10-31T15:25:52.253Z,3.60
2022-10-31T15:28:26.155Z,5.90
2022-10-31T15:30:55.382Z,4.20
2022-10-31T15:33:25.472Z,6.13
2022-10-31T15:35:58.388Z,4.10
2022-10-31T15:38:27.040Z,4.10
2022-10-31T15:41:02.850Z,3.70
2022-10-31T15:43:36.681Z,4.03
2022-10-31T15:46:05.055Z,8.00
2022-10-31T15:48:35.518Z,4.20
2022-10-31T15:51:03.741Z,4.30
2022-10-31T15:53:36.732Z,8.00
2022-10-31T15:56:06.846Z,4.20
2022-10-31T15:58:43.591Z,6.67
2022-10-31T16:01:23.173Z,4.27
2022-10-31T16:04:02.213Z,3.90
2022-10-31T16:06:30.119Z,4.07
2022-10-31T16:08:58.292Z,4.17
2022-10-31T16:11:29.761Z,4.10
2022-10-31T16:14:01.665Z,4.33
2022-10-31T16:16:35.348Z,4.17
2022-10-31T16:19:06.066Z,4.30
2022-10-31T16:21:36.412Z,3.63
2022-10-31T16:24:07.541Z,6.53
2022-10-31T16:26:35.985Z,6.73
2022-10-31T16:29:05.982Z,4.70
2022-10-31T16:31:39.898Z,4.33
2022-10-31T16:34:16.182Z,4.10
2022-10-31T16:36:44.320Z,4.00
2022-10-31T16:39:12.261Z,4.70
2022-10-31T16:41:42.058Z,4.60
2022-10-31T16:44:19.293Z,4.10
2022-10-31T16:46:47.688Z,4.20
2022-10-31T16:49:17.529Z,4.07
2022-10-31T16:51:46.577Z,8.93
2022-10-31T16:54:14.471Z,4.80
2022-10-31T16:56:44.010Z,8.03
2022-10-31T16:59:16.552Z,5.07
2022-10-31T17:01:47.293Z,4.57
2022-10-31T17:04:15.860Z,5.17
2022-10-31T17:06:44.050Z,4.97
2022-10-31T17:09:12.032Z,5.13
2022-10-31T17:11:49.206Z,5.43
2022-10-31T17:14:20.233Z,6.30
2022-10-31T17:16:48.158Z,5.40
2022-10-31T17:19:16.218Z,5.87
2022-10-31T17:21:44.286Z,4.87
2022-10-31T17:24:14.269Z,5.37
2022-10-31T17:26:42.560Z,6.37
2022-10-31T17:29:10.473Z,5.27
2022-10-31T17:31:40.066Z,4.83
2022-10-31T17:34:08.756Z,8.63
2022-10-31T17:36:37.154Z,6.00
2022-10-31T17:39:07.561Z,7.33
2022-10-31T17:41:35.562Z,6.40
2022-10-31T17:44:03.495Z,5.17
2022-10-31T17:46:31.397Z,5.93
2022-10-31T17:49:01.871Z,5.20
2022-10-31T17:51:29.758Z,5.17
2022-10-31T17:53:59.015Z,5.70
2022-10-31T17:56:26.958Z,4.93
2022-10-31T17:58:57.983Z,4.60
2022-10-31T18:01:26.045Z,4.60
2022-10-31T18:03:54.112Z,4.87
2022-10-31T18:06:23.387Z,5.03
2022-10-31T18:08:51.259Z,6.10
2022-10-31T18:11:21.811Z,5.03
2022-10-31T18:13:49.791Z,4.33
2022-10-31T18:16:19.152Z,4.77
2022-10-31T18:18:51.306Z,5.27
2022-10-31T18:21:19.447Z,4.77
2022-10-31T18:23:48.908Z,5.13
2022-10-31T18:26:16.816Z,4.53
2022-10-31T18:28:44.744Z,5.00
2022-10-31T18:31:12.628Z,4.83
2022-10-31T18:33:42.565Z,5.60
2022-10-31T18:36:11.873Z,4.90
2022-10-31T18:38:40.932Z,8.23
2022-10-31T18:41:10.629Z,8.07
2022-10-31T18:43:39.038Z,4.90
2022-10-31T18:46:08.881Z,5.03
2022-10-31T18:48:37.190Z,5.10
2022-10-31T18:53:38.529Z,4.97
2022-10-31T18:56:10.898Z,5.00
2022-10-31T18:58:38.850Z,5.33
2022-10-31T19:01:08.228Z,6.13
2022-10-31T19:03:36.357Z,4.83
2022-10-31T19:06:04.975Z,7.37
2022-10-31T19:08:33.037Z,6.63
2022-10-31T19:11:05.808Z,5.27
2022-10-31T19:13:35.537Z,6.87
2022-10-31T19:16:08.069Z,5.73
2022-10-31T19:18:35.947Z,9.03
2022-10-31T19:21:07.283Z,5.50
2022-10-31T19:23:35.304Z,5.43
2022-10-31T19:26:03.624Z,5.80
2022-10-31T19:28:32.289Z,6.13
2022-10-31T19:31:02.128Z,6.00
2022-10-31T19:33:34.965Z,5.77
2022-10-31T19:36:08.351Z,6.67
2022-10-31T19:38:36.742Z,6.43
2022-10-31T19:41:06.417Z,6.93
2022-10-31T19:43:34.558Z,7.80
2022-10-31T19:46:04.926Z,8.43
2022-10-31T19:48:32.987Z,7.07
2022-10-31T19:51:05.726Z,6.57
2022-10-31T19:53:33.912Z,7.17
2022-10-31T19:56:03.320Z,8.37
2022-10-31T19:58:33.205Z,6.20
2022-10-31T20:01:01.157Z,7.03
2022-10-31T20:03:30.413Z,8.40
2022-10-31T20:05:58.285Z,6.57
2022-10-31T20:08:26.198Z,6.93
2022-10-31T20:10:57.876Z,7.07
2022-10-31T20:13:26.148Z,6.43
2022-10-31T20:15:54.079Z,6.83
2022-10-31T20:20:58.548Z,6.70
2022-10-31T20:23:27.683Z,6.43
2022-10-31T20:25:55.556Z,7.40
2022-10-31T20:28:23.538Z,8.20
2022-10-31T20:30:51.618Z,6.73
2022-10-31T20:33:19.507Z,6.37
2022-10-31T20:35:47.468Z,6.53
2022-10-31T20:38:16.787Z,7.20
2022-10-31T20:40:44.733Z,7.57
2022-10-31T20:43:13.106Z,7.17
2022-10-31T20:45:41.040Z,7.50
2022-10-31T20:48:09.083Z,7.60
2022-10-31T20:50:39.491Z,7.53
2022-10-31T20:53:07.423Z,7.23
2022-10-31T20:55:36.691Z,7.77
2022-10-31T20:58:04.765Z,7.27
2022-10-31T21:00:32.677Z,6.63
2022-10-31T21:03:00.939Z,8.00
2022-10-31T21:05:29.016Z,7.23
2022-10-31T21:07:56.979Z,8.27
2022-10-31T21:10:24.887Z,7.40
2022-10-31T21:12:54.180Z,7.00
2022-10-31T21:15:22.056Z,9.17
2022-10-31T21:17:49.993Z,7.73
2022-10-31T21:20:17.996Z,7.63
2022-10-31T21:22:45.931Z,8.43
2022-10-31T21:25:13.830Z,9.53
2022-10-31T21:27:41.754Z,7.57
2022-10-31T21:30:11.575Z,8.73
2022-10-31T21:32:39.469Z,8.13
2022-10-31T21:35:07.758Z,7.07
2022-10-31T21:37:35.784Z,8.07
2022-10-31T21:40:03.924Z,7.20
2022-10-31T21:42:31.847Z,7.53
2022-10-31T21:44:59.726Z,7.33
2022-10-31T21:47:29.133Z,7.70
2022-10-31T21:49:57.015Z,6.73
2022-10-31T21:52:24.918Z,7.53
2022-10-31T21:54:51.864Z,7.93
2022-10-31T21:57:19.768Z,7.90
2022-10-31T21:59:48.535Z,7.53
2022-10-31T22:02:16.543Z,8.03
2022-10-31T22:04:45.823Z,9.60
2022-10-31T22:07:13.699Z,7.80
2022-10-31T22:09:47.223Z,7.73
2022-10-31T22:12:15.249Z,7.27
2022-10-31T22:17:16.198Z,6.70
2022-10-31T22:19:45.493Z,7.30
2022-10-31T22:22:13.800Z,8.67
2022-10-31T22:24:41.721Z,8.07
2022-10-31T22:27:09.638Z,7.70
2022-10-31T22:29:37.667Z,6.97
2022-10-31T22:32:05.837Z,7.23
2022-10-31T22:34:33.772Z,6.53
2022-10-31T22:37:03.393Z,7.03
2022-10-31T22:39:31.276Z,7.63
2022-10-31T22:41:59.135Z,8.80
2022-10-31T22:44:27.114Z,9.47
2022-10-31T22:46:54.989Z,7.27
2022-10-31T22:49:22.919Z,6.70
2022-10-31T22:51:51.812Z,6.53
2022-10-31T22:54:21.091Z,6.87
2022-10-31T22:56:48.996Z,6.00
2022-10-31T22:59:17.743Z,7.03
2022-10-31T23:01:46.214Z,8.20
2022-10-31T23:04:14.970Z,7.17
2022-10-31T23:06:43.088Z,6.40
2022-10-31T23:09:15.108Z,7.00
2022-10-31T23:11:44.563Z,6.87
2022-10-31T23:14:13.876Z,7.97
2022-10-31T23:16:44.428Z,6.80
2022-10-31T23:19:16.795Z,7.73
2022-10-31T23:21:59.963Z,5.57
2022-10-31T23:24:34.420Z,6.30
2022-10-31T23:27:10.189Z,6.07
2022-10-31T23:29:46.794Z,6.10
2022-10-31T23:32:18.106Z,6.63
2022-10-31T23:34:46.730Z,6.53
2022-10-31T23:37:15.040Z,6.10
2022-10-31T23:39:42.957Z,6.17
2022-10-31T23:42:12.224Z,6.30
2022-10-31T23:44:40.144Z,6.13
2022-10-31T23:47:08.235Z,5.93
2022-10-31T23:49:36.265Z,5.57
2022-10-31T23:52:04.730Z,6.93
2022-10-31T23:54:33.321Z,5.37
2022-10-31T23:57:01.539Z,5.50
2022-10-31T23:59:31.278Z,6.07
